EDT,Max TemperatureF,Mean TemperatureF,Min TemperatureF,Max Dew PointF,MeanDew PointF,Min DewpointF,Max Humidity, Mean Humidity, Min Humidity, Max Sea Level PressureIn, Mean Sea Level PressureIn, Min Sea Level PressureIn, Max VisibilityMiles, Mean VisibilityMiles, Min VisibilityMiles, Max Wind SpeedMPH, Mean Wind SpeedMPH, Max Gust SpeedMPH,PrecipitationIn, CloudCover, Events, WindDirDegrees
2013-9-1,84,78,73,73,72,70,89,81,66,29.89,29.85,29.80,10,10,5,18,10,24,0.01,1,,181
2013-9-2,84,78,73,72,71,70,94,83,66,29.82,29.78,29.76,10,9,5,14,7,16,0.00,3,,211
2013-9-3,82,76,69,72,66,55,94,71,51,29.93,29.81,29.75,10,9,5,14,7,20,0.00,1,,280
2013-9-4,77,70,64,63,58,55,83,64,47,30.06,30.02,29.93,10,10,10,12,6,,0.00,0,,293
2013-9-5,80,74,66,64,60,45,78,64,43,30.13,30.04,30.00,10,10,7,14,8,18,0.00,2,,298
2013-9-6,71,63,55,52,48,43,88,58,43,30.25,30.19,30.13,10,10,10,13,7,,0.00,0,,14
2013-9-7,75,63,51,61,53,45,88,68,34,30.15,30.07,29.95,10,10,10,12,3,,0.00,0,,233
2013-9-8,82,73,64,66,62,52,83,68,51,30.05,29.92,29.87,10,10,10,12,7,16,0.00,1,,277
2013-9-9,73,64,55,63,56,46,78,67,52,30.22,30.17,30.06,10,10,10,14,9,18,0.00,4,,88
2013-9-10,84,76,69,70,68,63,83,76,62,30.22,30.17,30.12,10,10,10,16,10,21,0.00,3,,187
2013-9-11,89,80,71,73,69,64,88,72,55,30.17,30.12,30.05,10,10,7,17,8,21,0.00,0,,198
2013-9-12,87,79,71,72,69,66,94,76,58,30.04,29.89,29.74,10,9,2,17,11,25,0.12,1,Thunderstorm,194
2013-9-13,75,68,62,68,61,52,94,71,47,29.88,29.74,29.68,10,9,3,15,7,22,0.01,3,,312
2013-9-14,64,58,51,50,47,45,82,62,49,30.17,30.03,29.88,10,10,6,14,7,20,0.00,2,,335
2013-9-15,71,58,44,55,48,39,87,68,43,30.26,30.19,30.13,10,10,10,14,4,17,0.00,0,,211
2013-9-16,71,64,57,63,57,52,83,74,56,30.21,30.11,30.06,10,10,7,15,8,17,0.00,5,,293
2013-9-17,62,55,48,50,43,39,82,60,45,30.42,30.34,30.22,10,10,10,17,11,24,0.00,0,,35
2013-9-18,66,54,42,48,44,37,87,68,49,30.35,30.29,30.20,10,10,10,9,2,,0.00,1,,70
2013-9-19,71,58,46,55,49,43,88,70,41,30.22,30.18,30.11,10,10,9,10,2,,0.00,0,,231
2013-9-20,75,62,50,57,53,46,88,71,50,30.13,30.08,30.02,10,10,10,13,3,16,0.00,1,,172
2013-9-21,78,66,53,66,59,48,94,77,42,30.03,29.87,29.72,10,10,7,18,5,24,0.09,3,,174
2013-9-22,71,63,53,64,54,43,94,69,43,29.92,29.80,29.68,10,10,6,21,10,30,0.55,3,,320
2013-9-23,64,57,50,45,42,39,72,58,45,30.07,30.02,29.93,10,10,10,14,8,23,0.00,0,,341
2013-9-24,66,57,48,50,44,39,82,64,49,30.09,30.02,29.94,10,10,10,14,6,17,0.00,0,,318
2013-9-25,71,60,48,55,51,43,88,75,56,29.97,29.94,29.90,10,10,10,7,3,,0.00,1,,27
2013-9-26,71,61,51,55,52,46,94,75,56,30.09,30.01,29.93,10,10,9,10,3,,0.00,1,,61
2013-9-27,69,61,53,55,51,48,88,69,46,30.26,30.18,30.09,10,10,10,13,5,18,0.00,5,,47
2013-9-28,69,63,57,54,52,48,88,66,49,30.31,30.26,30.22,10,10,10,17,8,24,0.00,4,,33
2013-9-29,69,61,53,55,50,46,94,75,49,30.22,30.15,30.07,10,10,10,15,6,24,0.00,1,,39
2013-9-30,71,60,48,55,51,45,88,74,56,30.09,30.05,30.02,10,10,9,12,5,,0.00,1,,11